Sierra City, California
Current Conditions -  °F | °C
As of 12:52 AM on Thursday 18 Dec 2014 (Local Time) from KBLU Reporting Station
Haze Haze  
Wind Chill: -2°   Ceiling: 500
Heat Index:   Visibility: 3mi
Dew Point: -1°   Wind: 5mph
Humidity: 89%   Direction: 130°SE
Pressure: 30.07"   Gusts: NA
Location:  39.57°N, 120.64°W
Report Text: KBLU 180852Z AUTO 13004KT 3SM BR BKN005 OVC008 01/M01 A3007 RMK AO2 SLP192 I1000 I3000 T00061011 50001
Loading
Personal Weather Stations






























Interactive Weather Map New forecast layout! Learn more

10-Day Weather Forecast

Advertisements
Track Severe Weather on mobile